Terminal Aerodrome Forecast
Issued by NWS Sioux Falls, SD

Home | Current Version | Previous Version | Graphics & Text | Print | Product List | Glossary Off
Versions: 1 2 3 4 5 6 7 8 9 10 11 12 13 14 15 16 17 18 19 20 21 22 23

000
FTUS43 KFSD 151616 AAB
TAFFSD
TAF AMD
KFSD 151616Z 1516/1612 33019G27KT P6SM FEW020
     FM151700 33019G29KT 6SM BR BKN020
     FM151900 33019G29KT 6SM BR BKN015
     FM160200 33014KT P6SM SCT035=

USA.gov is the U.S. government's official web portal to all federal, state and local government web resources and services.